Time;durP1;ratioP1;P1;durP2;ratioP2;P2;SDS_P1;SDS_P2;PMS_P1;PMS_P2;Temp;Humidity;BMP_temperature;BMP_pressure;BME280_temperature;BME280_humidity;BME280_pressure;Samples;Min_cycle;Max_cycle;Signal;HPM_P1;HPM_P2
2021/04/04 00:01:46;;;;;;;3.50;1.90;;;;;;;;;;3607488;39;20391;-72
2021/04/04 00:04:12;;;;;;;2.78;1.55;;;;;;;;;;3607814;39;20369;-72
2021/04/04 00:06:39;;;;;;;2.17;1.30;;;;;;;;;;3607671;39;20383;-71
2021/04/04 00:09:05;;;;;;;3.67;1.95;;;;;;;;;;3608452;39;20375;-72
2021/04/04 00:11:32;;;;;;;3.13;1.30;;;;;;;;;;3598110;39;20525;-72
2021/04/04 00:13:58;;;;;;;4.32;1.40;;;;;;;;;;3600662;39;20407;-72
2021/04/04 00:16:25;;;;;;;2.63;1.40;;;;;;;;;;3607297;39;20402;-72
2021/04/04 00:18:51;;;;;;;3.50;1.50;;;;;;;;;;3607869;39;20371;-72
2021/04/04 00:21:17;;;;;;;4.63;1.70;;;;;;;;;;3605089;39;20736;-72
2021/04/04 00:23:43;;;;;;;2.95;1.40;;;;;;;;;;3610288;39;20364;-72
2021/04/04 00:26:09;;;;;;;4.70;1.55;;;;;;;;;;3607428;39;20391;-72
2021/04/04 00:28:37;;;;;;;4.05;1.83;;;;;;;;;;3607663;39;20379;-71
2021/04/04 00:31:03;;;;;;;3.80;1.42;;;;;;;;;;3607319;39;20386;-71
2021/04/04 00:33:29;;;;;;;3.77;1.87;;;;;;;;;;3594508;39;20700;-71
2021/04/04 00:35:55;;;;;;;3.80;1.65;;;;;;;;;;3606366;39;20788;-73
2021/04/04 00:38:22;;;;;;;3.27;1.80;;;;;;;;;;3602477;39;20347;-73
2021/04/04 00:40:48;;;;;;;5.10;1.60;;;;;;;;;;3589520;39;20397;-71
2021/04/04 00:43:14;;;;;;;2.88;2.00;;;;;;;;;;3609799;39;20421;-71
2021/04/04 00:45:41;;;;;;;4.03;1.65;;;;;;;;;;3607014;39;20402;-72
2021/04/04 00:48:08;;;;;;;3.67;1.77;;;;;;;;;;3593421;39;20398;-73
2021/04/04 00:50:35;;;;;;;5.80;2.10;;;;;;;;;;3609967;39;20460;-72
2021/04/04 00:53:03;;;;;;;4.57;2.35;;;;;;;;;;3607422;39;20836;-72
2021/04/04 00:55:30;;;;;;;4.13;1.80;;;;;;;;;;3610228;39;20385;-72
2021/04/04 00:57:56;;;;;;;3.97;1.90;;;;;;;;;;3610268;39;20411;-71
2021/04/04 01:00:24;;;;;;;4.63;1.50;;;;;;;;;;3608534;39;20375;-71
2021/04/04 01:05:28;;;;;;;3.72;1.60;;;;;;;;;;3600592;39;20403;-70
2021/04/04 01:07:57;;;;;;;5.47;2.00;;;;;;;;;;3592804;40;20485;-70
2021/04/04 01:10:24;;;;;;;4.35;1.50;;;;;;;;;;3597839;39;20385;-71
2021/04/04 01:12:53;;;;;;;2.92;1.80;;;;;;;;;;3597804;39;20373;-69
2021/04/04 01:15:20;;;;;;;3.10;1.50;;;;;;;;;;3597757;39;20357;-70
2021/04/04 01:17:48;;;;;;;3.50;1.73;;;;;;;;;;3593864;39;20380;-71
2021/04/04 01:20:18;;;;;;;3.80;1.58;;;;;;;;;;3598273;39;20375;-71
2021/04/04 01:23:14;;;;;;;4.38;1.63;;;;;;;;;;3597876;39;20405;-71
2021/04/04 01:25:45;;;;;;;3.80;1.73;;;;;;;;;;3590907;39;20373;-70
2021/04/04 01:28:15;;;;;;;3.42;1.70;;;;;;;;;;3599379;39;20716;-70
2021/04/04 01:30:42;;;;;;;3.25;1.80;;;;;;;;;;3601945;39;20449;-71
2021/04/04 01:33:10;;;;;;;3.93;1.80;;;;;;;;;;3592431;39;20370;-71
2021/04/04 01:35:37;;;;;;;3.58;1.75;;;;;;;;;;3597364;40;20372;-71
2021/04/04 01:38:12;;;;;;;3.20;1.80;;;;;;;;;;3587129;40;20749;-70
2021/04/04 01:40:39;;;;;;;5.60;2.20;;;;;;;;;;3587234;40;20525;-71
2021/04/04 01:43:07;;;;;;;3.17;1.63;;;;;;;;;;3587140;40;20413;-71
2021/04/04 01:45:34;;;;;;;4.50;1.83;;;;;;;;;;3597213;40;20360;-71
2021/04/04 01:48:01;;;;;;;1.77;1.27;;;;;;;;;;3584020;40;20766;-71
2021/04/04 01:50:28;;;;;;;4.37;1.97;;;;;;;;;;3597393;40;20380;-70
2021/04/04 01:52:55;;;;;;;3.17;1.80;;;;;;;;;;3594877;40;20355;-70
2021/04/04 01:55:22;;;;;;;3.22;1.80;;;;;;;;;;3598996;39;20636;-71
2021/04/04 01:57:48;;;;;;;4.10;1.83;;;;;;;;;;3595208;40;20446;-71
2021/04/04 02:00:19;;;;;;;3.30;1.65;;;;;;;;;;3587516;40;20413;-71
2021/04/04 02:02:47;;;;;;;2.03;1.27;;;;;;;;;;3598139;39;20413;-71
2021/04/04 02:05:16;;;;;;;2.93;1.30;;;;;;;;;;3585527;40;20790;-70
2021/04/04 02:07:43;;;;;;;3.45;1.38;;;;;;;;;;3580212;40;20458;-70
2021/04/04 02:10:10;;;;;;;2.17;1.67;;;;;;;;;;3586705;40;20747;-70
2021/04/04 02:12:37;;;;;;;2.20;1.40;;;;;;;;;;3582737;40;20477;-70
2021/04/04 02:15:05;;;;;;;4.28;1.95;;;;;;;;;;3575634;40;20458;-71
2021/04/04 02:17:33;;;;;;;4.10;1.83;;;;;;;;;;3580176;40;20394;-70
2021/04/04 02:20:00;;;;;;;3.90;1.43;;;;;;;;;;3573720;40;20421;-70
2021/04/04 02:22:26;;;;;;;3.42;1.73;;;;;;;;;;3582039;40;20386;-70
2021/04/04 02:24:53;;;;;;;2.78;1.60;;;;;;;;;;3581291;40;20387;-71
2021/04/04 02:27:19;;;;;;;3.70;1.50;;;;;;;;;;3572922;40;20391;-71
2021/04/04 02:29:45;;;;;;;7.97;1.73;;;;;;;;;;3573455;40;20427;-70
2021/04/04 02:32:12;;;;;;;2.47;1.63;;;;;;;;;;3584628;40;20418;-70
2021/04/04 02:34:41;;;;;;;4.47;1.30;;;;;;;;;;3575568;40;20399;-71
2021/04/04 02:37:11;;;;;;;3.28;1.50;;;;;;;;;;3576811;40;20400;-70
2021/04/04 02:39:44;;;;;;;5.82;1.70;;;12.00;87.70;;;;;;3576547;40;20384;-70
2021/04/04 02:42:12;;;;;;;3.97;1.23;;;11.80;86.90;;;;;;3576121;40;20372;-70
2021/04/04 02:44:40;;;;;;;3.67;1.40;;;11.70;86.30;;;;;;3576819;40;20457;-71
2021/04/04 02:47:10;;;;;;;3.30;1.40;;;11.60;86.10;;;;;;3576558;40;21002;-70
2021/04/04 02:49:37;;;;;;;2.63;1.35;;;11.60;86.40;;;;;;3576895;40;20372;-68
2021/04/04 02:52:06;;;;;;;3.30;1.15;;;11.60;86.20;;;;;;3577831;40;20366;-67
2021/04/04 02:54:35;;;;;;;4.53;1.20;;;;;;;;;;3575024;40;20507;-68
2021/04/04 02:57:02;;;;;;;2.70;0.98;;;;;;;;;;3576322;40;20711;-68
2021/04/04 02:59:30;;;;;;;1.75;1.15;;;;;;;;;;3574951;40;20468;-68
2021/04/04 03:01:58;;;;;;;1.75;1.00;;;;;;;;;;3580835;40;20417;-69
2021/04/04 03:04:25;;;;;;;3.10;1.30;;;;;;;;;;3580587;40;20425;-68
2021/04/04 03:06:52;;;;;;;2.65;1.20;;;;;;;;;;3584997;40;21839;-68
2021/04/04 03:09:19;;;;;;;2.95;1.42;;;;;;;;;;3576347;40;20392;-68
2021/04/04 03:11:47;;;;;;;3.53;1.20;;;;;;;;;;3593774;40;20371;-69
2021/04/04 03:14:14;;;;;;;2.25;1.40;;;;;;;;;;3585540;40;20405;-68
2021/04/04 03:16:41;;;;;;;3.83;1.27;;;;;;;;;;3587904;40;20424;-69
2021/04/04 03:19:09;;;;;;;1.65;1.20;;;;;;;;;;3590374;40;20380;-68
2021/04/04 03:21:36;;;;;;;3.08;1.23;;;;;;;;;;3586279;40;20647;-69
2021/04/04 03:24:03;;;;;;;2.67;1.38;;;;;;;;;;3592977;40;20387;-68
2021/04/04 03:26:30;;;;;;;2.60;1.07;;;;;;;;;;3589501;40;20393;-69
2021/04/04 03:28:57;;;;;;;3.87;1.27;;;;;;;;;;3585504;40;20946;-68
2021/04/04 03:31:24;;;;;;;2.83;1.30;;;;;;;;;;3581199;40;20373;-69
2021/04/04 03:33:50;;;;;;;2.20;1.38;;;;;;;;;;3586473;40;20392;-68
2021/04/04 03:36:17;;;;;;;3.70;1.58;;;;;;;;;;3588118;40;20387;-69
2021/04/04 03:38:44;;;;;;;2.28;1.25;;;;;;;;;;3589146;40;20416;-69
2021/04/04 03:41:11;;;;;;;3.63;1.55;;;;;;;;;;3590260;40;20388;-68
2021/04/04 03:43:38;;;;;;;4.00;1.52;;;;;;;;;;3590153;40;20359;-69
2021/04/04 03:46:06;;;;;;;3.17;1.20;;;;;;;;;;3582034;40;20468;-68
2021/04/04 03:48:34;;;;;;;2.75;1.42;;;;;;;;;;3588667;40;20377;-68
2021/04/04 03:51:02;;;;;;;2.03;1.20;;;;;;;;;;3588952;40;20364;-69
2021/04/04 03:53:29;;;;;;;3.75;1.20;;;;;;;;;;3587808;40;20367;-68
2021/04/04 03:55:56;;;;;;;3.03;1.10;;;;;;;;;;3579230;40;20457;-69
2021/04/04 03:58:24;;;;;;;2.70;1.10;;;;;;;;;;3578439;40;20395;-70
2021/04/04 04:00:51;;;;;;;2.70;1.27;;;;;;;;;;3590678;40;20422;-68
2021/04/04 04:03:19;;;;;;;2.97;1.02;;;;;;;;;;3577769;40;20388;-68
2021/04/04 04:05:47;;;;;;;3.07;1.10;;;;;;;;;;3586466;40;20418;-69
2021/04/04 04:08:13;;;;;;;3.00;1.10;;;;;;;;;;3578745;40;20396;-69
2021/04/04 04:10:39;;;;;;;2.25;0.95;;;;;;;;;;3580251;40;20440;-69
2021/04/04 04:13:07;;;;;;;2.10;0.87;;;;;;;;;;3568459;40;20377;-68
2021/04/04 04:15:33;;;;;;;1.90;1.00;;;;;;;;;;3561304;40;20374;-69
2021/04/04 04:18:00;;;;;;;2.25;1.00;;;;;;;;;;3567571;40;20373;-69
2021/04/04 04:20:28;;;;;;;1.42;0.95;;;;;;;;;;3570125;40;20376;-68
2021/04/04 04:22:57;;;;;;;3.17;1.13;;;;;;;;;;3576331;40;20419;-68
2021/04/04 04:25:23;;;;;;;2.00;1.00;;;;;;;;;;3568947;40;20361;-68
2021/04/04 04:27:50;;;;;;;2.05;0.80;;;;;;;;;;3567657;40;20373;-68
2021/04/04 04:30:17;;;;;;;2.75;1.02;;;;;;;;;;3567455;40;20409;-68
2021/04/04 04:32:44;;;;;;;0.97;0.80;;;;;;;;;;3567571;40;20389;-68
2021/04/04 04:35:11;;;;;;;2.17;0.90;;;;;;;;;;3560938;40;20420;-69
2021/04/04 04:37:39;;;;;;;3.08;0.88;;;;;;;;;;3563921;40;20421;-69
2021/04/04 04:40:06;;;;;;;1.77;0.80;;;;;;;;;;3552691;40;20389;-68
2021/04/04 04:42:33;;;;;;;2.55;0.95;;;;;;;;;;3555355;40;20475;-68
2021/04/04 04:45:00;;;;;;;1.80;0.85;;;;;;;;;;3561640;40;20378;-68
2021/04/04 04:47:26;;;;;;;3.53;0.90;;;;;;;;;;3548267;40;20542;-68
2021/04/04 04:49:53;;;;;;;2.30;0.73;;;;;;;;;;3547893;40;20481;-68
2021/04/04 04:52:19;;;;;;;2.17;0.80;;;;;;;;;;3561475;40;20731;-69
2021/04/04 04:54:46;;;;;;;1.58;0.77;;;;;;;;;;3549526;40;20387;-68
2021/04/04 04:57:13;;;;;;;3.13;0.80;;;;;;;;;;3562182;40;20394;-68
2021/04/04 04:59:39;;;;;;;1.98;0.70;;;;;;;;;;3554939;40;20482;-68
2021/04/04 05:02:07;;;;;;;2.85;1.10;;;;;;;;;;3555885;40;20846;-69
2021/04/04 05:04:34;;;;;;;1.95;0.80;;;;;;;;;;3553672;40;20505;-69
2021/04/04 05:07:00;;;;;;;2.10;0.73;;;;;;;;;;3568361;40;20403;-68
2021/04/04 05:09:27;;;;;;;2.22;0.85;;;;;;;;;;3574191;40;20445;-68
2021/04/04 05:11:54;;;;;;;2.00;0.80;;;;;;;;;;3577105;40;20408;-68
2021/04/04 05:14:21;;;;;;;2.13;0.60;;;;;;;;;;3575831;40;20751;-68
2021/04/04 05:16:47;;;;;;;2.75;0.70;;;;;;;;;;3591368;40;20390;-68
2021/04/04 05:19:14;;;;;;;1.75;0.63;;;;;;;;;;3594495;40;20380;-68
2021/04/04 05:21:41;;;;;;;1.92;0.93;;;;;;;;;;3591176;40;20628;-68
2021/04/04 05:24:08;;;;;;;0.90;0.80;;;;;;;;;;3587387;40;20763;-68
2021/04/04 05:26:36;;;;;;;1.02;0.80;;;;;;;;;;3577700;40;20422;-68
2021/04/04 05:29:04;;;;;;;1.10;0.60;;;;;;;;;;3586292;40;20395;-68
2021/04/04 05:31:30;;;;;;;2.15;0.80;;;;;;;;;;3589640;40;20412;-69
2021/04/04 05:33:56;;;;;;;1.05;0.82;;;;;;;;;;3589223;40;20426;-68
2021/04/04 05:36:23;;;;;;;1.10;0.63;;;;;;;;;;3590052;40;20387;-68
2021/04/04 05:38:49;;;;;;;1.77;0.88;;;;;;;;;;3576410;40;20443;-68
2021/04/04 05:41:17;;;;;;;1.73;0.80;;;;;;;;;;3577555;40;20402;-68
2021/04/04 05:43:48;;;;;;;1.80;1.00;;;;;;;;;;3587057;40;20736;-68
2021/04/04 05:46:20;;;;;;;3.30;1.05;;;;;;;;;;3587451;40;20378;-68
2021/04/04 05:48:54;;;;;;;1.60;0.80;;;;;;;;;;3591374;40;20387;-69
2021/04/04 05:51:24;;;;;;;1.38;0.60;;;;;;;;;;3583149;40;20368;-68
2021/04/04 05:54:15;;;;;;;1.42;0.60;;;;;;;;;;3570695;40;20386;-71
2021/04/04 05:56:42;;;;;;;2.30;0.70;;;;;;;;;;3554486;40;20399;-68
2021/04/04 05:59:10;;;;;;;2.20;0.70;;;;;;;;;;3553291;40;20477;-68
2021/04/04 06:01:49;;;;;;;2.47;0.60;;;;;;;;;;3540157;40;20494;-69
2021/04/04 06:04:24;;;;;;;2.63;0.88;;;;;;;;;;3552699;40;20439;-68
2021/04/04 06:06:56;;;;;;;1.90;0.70;;;;;;;;;;3550383;40;20447;-68
2021/04/04 06:09:30;;;;;;;2.13;0.70;;;;;;;;;;3555393;40;20391;-68
2021/04/04 06:12:05;;;;;;;1.85;0.70;;;;;;;;;;3551281;40;20413;-69
2021/04/04 06:14:34;;;;;;;4.25;0.88;;;;;;;;;;3535764;40;20412;-68
2021/04/04 06:17:03;;;;;;;1.77;0.80;;;;;;;;;;3535439;40;20445;-68
2021/04/04 06:19:36;;;;;;;1.80;0.75;;;;;;;;;;3526176;40;20560;-68
2021/04/04 06:22:07;;;;;;;1.67;1.00;;;;;;;;;;3535395;40;20391;-70
2021/04/04 06:24:34;;;;;;;1.55;0.63;;;;;;;;;;3535495;40;20410;-69
2021/04/04 06:27:04;;;;;;;1.30;0.75;;;;;;;;;;3537494;40;20389;-68
2021/04/04 06:29:35;;;;;;;2.95;0.80;;;;;;;;;;3529221;40;20387;-69
2021/04/04 06:32:06;;;;;;;2.80;0.63;;;;;;;;;;3536642;40;20394;-67
2021/04/04 06:34:38;;;;;;;4.32;3.03;;;;;;;;;;3574940;40;20450;-68
2021/04/04 06:37:18;;;;;;;4.55;4.15;;;;;;;;;;3573355;40;20400;-68
2021/04/04 06:39:57;;;;;;;3.47;1.15;;;;;;;;;;3566737;40;20418;-69
2021/04/04 06:42:29;;;;;;;1.88;1.30;;;;;;;;;;3566475;40;20389;-69
2021/04/04 06:45:01;;;;;;;2.80;1.15;;;;;;;;;;3562440;40;20420;-68
2021/04/04 06:47:34;;;;;;;2.25;1.10;;;;;;;;;;3570621;40;20455;-68
2021/04/04 06:50:09;;;;;;;2.42;0.80;;;;;;;;;;3566326;40;20374;-69
2021/04/04 06:52:43;;;;;;;2.38;1.15;;;;;;;;;;3566804;40;20374;-68
2021/04/04 06:55:13;;;;;;;2.20;1.02;;;;;;;;;;3568440;40;20365;-68
2021/04/04 06:58:00;;;;;;;4.47;0.80;;;;;;;;;;3564234;40;20435;-68
2021/04/04 07:00:31;;;;;;;1.15;0.80;;;;;;;;;;3534961;40;20421;-69
2021/04/04 07:03:04;;;;;;;1.40;0.68;;;;;;;;;;3535283;40;20507;-68
2021/04/04 07:05:32;;;;;;;1.55;0.55;;;;;;;;;;3536076;40;20391;-69
2021/04/04 07:08:13;;;;;;;1.00;0.50;;;;;;;;;;3527111;40;20409;-68
2021/04/04 07:10:46;;;;;;;1.98;0.70;;;;;;;;;;3536897;40;20465;-68
2021/04/04 07:13:28;;;;;;;2.47;1.10;;;;;;;;;;3541039;40;20419;-68
2021/04/04 07:16:02;;;;;;;1.25;0.60;;;;;;;;;;3534371;40;20397;-68
2021/04/04 07:18:37;;;;;;;2.60;0.70;;;;;;;;;;3561276;40;20392;-69
2021/04/04 07:21:14;;;;;;;2.20;0.80;;;;;;;;;;3574898;40;20387;-69
2021/04/04 07:23:45;;;;;;;2.00;0.73;;;;;;;;;;3570637;40;20388;-69
2021/04/04 07:26:18;;;;;;;1.48;0.60;;;;;;;;;;3574751;40;20376;-68
2021/04/04 07:28:56;;;;;;;1.80;0.73;;;;;;;;;;3562218;40;20389;-69
2021/04/04 07:31:26;;;;;;;2.10;0.60;;;;;;;;;;3564597;40;20405;-68
2021/04/04 07:33:57;;;;;;;1.90;0.50;;;;;;;;;;3565473;40;20487;-69
2021/04/04 07:36:28;;;;;;;1.02;0.45;;;;;;;;;;3563500;40;20497;-68
2021/04/04 07:38:57;;;;;;;0.75;0.50;;;;;;;;;;3563762;40;20384;-68
2021/04/04 07:41:28;;;;;;;1.20;0.53;;;;;;;;;;3563903;40;20712;-68
2021/04/04 07:43:59;;;;;;;1.20;0.70;;;;;;;;;;3564561;40;20512;-68
2021/04/04 07:46:30;;;;;;;0.93;0.60;;;;;;;;;;3566033;40;20837;-69
2021/04/04 07:49:17;;;;;;;2.90;0.60;;;;;;;;;;3552815;40;20400;-68
2021/04/04 07:51:47;;;;;;;1.10;0.40;;;;;;;;;;3529755;40;20406;-69
2021/04/04 07:54:19;;;;;;;1.13;0.60;;;;;;;;;;3534106;40;20469;-68
2021/04/04 07:56:47;;;;;;;1.30;0.65;;;;;;;;;;3534843;40;20390;-70
2021/04/04 07:59:15;;;;;;;0.80;0.40;;;;;;;;;;3535378;40;20402;-69
2021/04/04 08:01:43;;;;;;;2.15;0.60;;;;;;;;;;3534561;40;20406;-69
2021/04/04 08:04:11;;;;;;;1.98;0.50;;;;;;;;;;3532671;40;20406;-68
2021/04/04 08:06:41;;;;;;;2.13;1.30;;;;;;;;;;3534254;40;20425;-68
2021/04/04 08:09:12;;;;;;;2.15;0.90;;;;;;;;;;3534872;40;20605;-68
2021/04/04 08:11:44;;;;;;;1.83;0.90;;;;;;;;;;3535015;40;20399;-68
2021/04/04 08:14:19;;;;;;;1.52;0.75;;;;;;;;;;3532258;40;20430;-68
2021/04/04 08:16:48;;;;;;;1.75;0.70;;;;;;;;;;3525357;40;20722;-69
2021/04/04 08:19:14;;;;;;;1.83;0.93;;;;;;;;;;3528471;40;20514;-68
2021/04/04 08:21:43;;;;;;;2.92;0.80;;;;;;;;;;3543544;40;20472;-68
2021/04/04 08:24:12;;;;;;;2.70;0.90;;;;;;;;;;3538461;40;20413;-68
2021/04/04 08:26:45;;;;;;;2.20;0.68;;;;;;;;;;3545721;40;20464;-68
2021/04/04 08:29:14;;;;;;;2.33;0.60;;;;;;;;;;3545259;40;20406;-68
2021/04/04 08:31:44;;;;;;;2.22;0.77;;;;;;;;;;3543106;40;20444;-68
2021/04/04 08:34:12;;;;;;;1.50;0.60;;;;;;;;;;3541111;40;20382;-68
2021/04/04 08:36:39;;;;;;;1.30;0.70;;;;;;;;;;3545632;40;20733;-68
2021/04/04 08:39:06;;;;;;;13.65;8.10;;;;;;;;;;3546471;40;20455;-68
2021/04/04 08:41:36;;;;;;;6.18;2.88;;;;;;;;;;3545765;40;20426;-68
2021/04/04 08:44:11;;;;;;;7.75;3.60;;;11.60;84.70;;;;;;3543609;40;20409;-68
2021/04/04 08:46:43;;;;;;;13.07;6.90;;;14.10;58.30;;;;;;3545960;40;20417;-68
2021/04/04 08:49:09;;;;;;;0.65;0.50;;;14.10;56.70;;;;;;3542033;40;20750;-68
2021/04/04 08:51:37;;;;;;;1.30;0.50;;;;;;;;;;3545691;40;20401;-69
2021/04/04 08:54:07;;;;;;;4.22;1.17;;;;;;;;;;3546427;40;20889;-69
2021/04/04 08:56:34;;;;;;;1.83;0.90;;;;;;;;;;3543768;40;20420;-68
2021/04/04 08:59:03;;;;;;;1.30;0.60;;;;;;;;;;3545892;40;20479;-69
2021/04/04 09:01:35;;;;;;;2.58;0.90;;;;;;;;;;3545594;40;20396;-69
2021/04/04 09:04:04;;;;;;;7.72;5.03;;;;;;;;;;3545386;40;20401;-69
2021/04/04 09:06:35;;;;;;;1.40;0.90;;;;;;;;;;3545145;40;20978;-69
2021/04/04 09:09:01;;;;;;;1.48;0.50;;;;;;;;;;3544327;40;20447;-69
2021/04/04 09:11:28;;;;;;;7.47;4.07;;;15.00;58.10;;;;;;3544853;40;20397;-68
2021/04/04 09:13:59;;;;;;;2.58;0.70;;;14.70;57.20;;;;;;3544579;40;20389;-68
2021/04/04 09:16:25;;;;;;;1.20;0.50;;;14.70;56.50;;;;;;3549333;40;20424;-68
2021/04/04 09:18:53;;;;;;;1.33;0.77;;;14.60;53.60;;;;;;3552220;40;20418;-68
2021/04/04 09:21:22;;;;;;;1.73;0.85;;;14.60;54.50;;;;;;3556737;40;20792;-69
2021/04/04 09:23:49;;;;;;;9.65;5.82;;;;;;;;;;3553418;40;20788;-68
2021/04/04 09:26:16;;;;;;;1.50;0.40;;;;;;;;;;3551988;40;20400;-69
2021/04/04 09:28:42;;;;;;;6.83;3.20;;;14.80;56.00;;;;;;3553928;40;20414;-68
2021/04/04 09:31:18;;;;;;;2.50;1.65;;;15.60;52.00;;;;;;3554036;40;20380;-75
2021/04/04 09:33:50;;;;;;;1.88;0.50;;;15.20;53.20;;;;;;3561958;40;20394;-74
2021/04/04 09:36:17;;;;;;;2.47;0.83;;;15.40;54.00;;;;;;3551541;40;20684;-72
2021/04/04 09:38:45;;;;;;;2.88;0.40;;;15.60;54.20;;;;;;3539527;40;20412;-69
2021/04/04 09:41:12;;;;;;;2.85;1.00;;;15.80;52.80;;;;;;3540597;40;20399;-75
2021/04/04 09:43:40;;;;;;;106.05;72.00;;;15.80;51.70;;;;;;3528756;40;20377;-69
2021/04/04 09:46:07;;;;;;;33.63;24.80;;;15.30;52.20;;;;;;3538981;40;20791;-69
2021/04/04 09:48:40;;;;;;;56.20;46.53;;;15.30;51.50;;;;;;3537861;40;20405;-70
2021/04/04 09:51:08;;;;;;;12.23;10.48;;;15.40;50.90;;;;;;3528135;40;20792;-70
2021/04/04 09:53:36;;;;;;;3.50;0.70;;;15.40;53.20;;;;;;3538394;40;20387;-74
2021/04/04 09:56:07;;;;;;;3.25;0.85;;;15.70;51.90;;;;;;3542609;40;20427;-75
2021/04/04 09:58:33;;;;;;;1.70;1.20;;;15.70;52.40;;;;;;3546320;40;20393;-75
2021/04/04 10:01:01;;;;;;;3.58;3.08;;;;;;;;;;3535862;40;20414;-75
2021/04/04 10:03:28;;;;;;;3.72;1.20;;;;;;;;;;3531385;40;20439;-75
2021/04/04 10:05:55;;;;;;;27.08;18.75;;;;;;;;;;3536844;40;20393;-74
2021/04/04 10:08:23;;;;;;;1.40;0.40;;;15.90;54.90;;;;;;3538239;40;20775;-67
2021/04/04 10:10:52;;;;;;;2.23;0.90;;;15.20;50.60;;;;;;3557124;40;20450;-70
2021/04/04 10:13:25;;;;;;;2.22;0.55;;;15.30;53.90;;;;;;3556795;40;20665;-75
2021/04/04 10:15:52;;;;;;;1.30;0.80;;;15.60;50.30;;;;;;3558347;40;20675;-75
2021/04/04 10:18:19;;;;;;;1.63;0.80;;;;;;;;;;3552573;40;20495;-74
2021/04/04 10:20:48;;;;;;;1.40;0.40;;;;;;;;;;3558677;40;20390;-74
2021/04/04 10:23:15;;;;;;;2.60;1.03;;;;;;;;;;3555439;40;20438;-75
2021/04/04 10:25:59;;;;;;;11.02;8.05;;;15.70;52.30;;;;;;3558230;40;20787;-75
2021/04/04 10:28:25;;;;;;;162.73;148.03;;;;;;;;;;3552520;40;20426;-72
2021/04/04 10:30:55;;;;;;;3.15;1.33;;;;;;;;;;3545461;40;20403;-75
2021/04/04 10:33:22;;;;;;;12.35;8.60;;;;;;;;;;3575756;40;20501;-73
2021/04/04 10:35:50;;;;;;;301.70;271.00;;;;;;;;;;3584555;40;20415;-75
2021/04/04 10:38:19;;;;;;;17.20;14.43;;;;;;;;;;3588841;40;20371;-74
2021/04/04 10:40:49;;;;;;;280.30;195.60;;;;;;;;;;3589662;40;20389;-74
2021/04/04 10:43:16;;;;;;;42.85;29.65;;;;;;;;;;3588701;40;20397;-75
2021/04/04 10:45:59;;;;;;;7.15;5.05;;;;;;;;;;3580313;40;20457;-75
2021/04/04 10:48:25;;;;;;;4.57;4.15;;;;;;;;;;3590246;40;20375;-74
2021/04/04 10:50:52;;;;;;;1.50;0.68;;;;;;;;;;3582474;40;20479;-75
2021/04/04 10:53:20;;;;;;;3.90;2.47;;;;;;;;;;3593295;40;20385;-75
2021/04/04 10:55:46;;;;;;;2.58;1.13;;;;;;;;;;3589469;40;20397;-74
2021/04/04 10:58:13;;;;;;;2.83;2.35;;;;;;;;;;3590711;40;20396;-75
2021/04/04 11:00:40;;;;;;;7.03;6.22;;;;;;;;;;3588243;40;20396;-74
2021/04/04 11:03:06;;;;;;;1.17;0.80;;;;;;;;;;3591454;40;20486;-75
2021/04/04 11:05:33;;;;;;;1.50;0.90;;;;;;;;;;3573011;40;20400;-75
2021/04/04 11:07:59;;;;;;;2.22;1.40;;;;;;;;;;3584162;40;20422;-74
2021/04/04 11:10:26;;;;;;;9.47;8.77;;;;;;;;;;3590631;40;20381;-74
2021/04/04 11:12:53;;;;;;;7.32;6.72;;;;;;;;;;3581387;40;20668;-68
2021/04/04 11:15:20;;;;;;;4.90;4.38;;;;;;;;;;3587550;40;20464;-68
2021/04/04 11:17:47;;;;;;;39.22;27.83;;;;;;;;;;3588355;40;20424;-74
2021/04/04 11:20:16;;;;;;;2.83;1.63;;;;;;;;;;3574604;40;20497;-74
2021/04/04 11:22:43;;;;;;;3.13;0.98;;;;;;;;;;3578065;40;20732;-75
2021/04/04 11:25:10;;;;;;;1.20;0.57;;;;;;;;;;3577671;40;20431;-73
2021/04/04 11:27:40;;;;;;;3.47;1.80;;;;;;;;;;3587434;40;20649;-74
2021/04/04 11:30:07;;;;;;;3.08;0.80;;;;;;;;;;3598204;40;20388;-68
2021/04/04 11:32:34;;;;;;;1.27;0.73;;;;;;;;;;3591768;40;20368;-68
2021/04/04 11:35:01;;;;;;;1.60;0.80;;;;;;;;;;3588207;40;20481;-68
2021/04/04 11:37:38;;;;;;;0.68;0.50;;;17.40;48.30;;;;;;3597830;40;20384;-68
2021/04/04 11:40:15;;;;;;;2.10;0.70;;;;;;;;;;3597932;40;20356;-68
2021/04/04 11:42:42;;;;;;;1.25;0.60;;;;;;;;;;3580546;40;20374;-68
2021/04/04 11:45:09;;;;;;;2.90;0.60;;;;;;;;;;3576864;40;20677;-69
2021/04/04 11:47:35;;;;;;;1.45;0.77;;;;;;;;;;3596281;40;20404;-69
2021/04/04 11:50:02;;;;;;;2.67;0.90;;;;;;;;;;3578057;40;20665;-70
2021/04/04 11:52:35;;;;;;;1.00;0.60;;;;;;;;;;3585872;40;20498;-70
2021/04/04 11:55:01;;;;;;;2.28;0.60;;;;;;;;;;3585806;40;20450;-69
2021/04/04 11:57:32;;;;;;;3.20;0.70;;;;;;;;;;3578665;40;20428;-69
2021/04/04 12:00:00;;;;;;;1.90;0.80;;;17.70;47.70;;;;;;3593801;40;20446;-69
2021/04/04 12:02:27;;;;;;;1.38;0.60;;;;;;;;;;3585288;40;20374;-69
2021/04/04 12:05:01;;;;;;;1.77;0.60;;;;;;;;;;3584623;40;20378;-69
2021/04/04 12:07:27;;;;;;;2.05;0.50;;;;;;;;;;3579686;40;20829;-69
2021/04/04 12:09:54;;;;;;;1.70;0.70;;;17.90;48.80;;;;;;3588827;40;20371;-69
2021/04/04 12:12:20;;;;;;;2.65;0.63;;;;;;;;;;3583132;40;20502;-69
2021/04/04 12:14:48;;;;;;;1.23;0.60;;;18.40;47.20;;;;;;3582169;40;20771;-70
2021/04/04 12:17:16;;;;;;;1.70;0.70;;;18.40;46.30;;;;;;3586722;40;20665;-69
2021/04/04 12:19:43;;;;;;;1.67;0.80;;;18.30;46.80;;;;;;3583062;40;20402;-69
2021/04/04 12:22:10;;;;;;;2.22;0.63;;;18.30;47.00;;;;;;3580612;40;20378;-69
2021/04/04 12:24:43;;;;;;;1.67;0.60;;;18.40;46.40;;;;;;3581550;40;20445;-70
2021/04/04 12:27:10;;;;;;;2.17;0.70;;;18.50;46.50;;;;;;3581464;40;20628;-69
2021/04/04 12:29:44;;;;;;;2.20;0.70;;;18.60;46.10;;;;;;3577466;40;20408;-70
2021/04/04 12:32:18;;;;;;;1.05;0.60;;;18.60;45.80;;;;;;3583949;40;20842;-69
2021/04/04 12:34:44;;;;;;;1.63;0.70;;;;;;;;;;3576484;40;20411;-68
2021/04/04 12:37:12;;;;;;;2.00;0.60;;;;;;;;;;3584258;40;20382;-67
2021/04/04 12:39:38;;;;;;;1.20;0.65;;;19.00;58.50;;;;;;3572762;40;20725;-68
2021/04/04 12:42:09;;;;;;;2.30;0.60;;;18.10;47.00;;;;;;3582844;40;20387;-68
2021/04/04 12:44:37;;;;;;;0.90;0.63;;;17.60;48.10;;;;;;3582949;40;20386;-68
2021/04/04 12:47:08;;;;;;;2.38;0.80;;;18.20;45.60;;;;;;3575560;40;20490;-69
2021/04/04 12:49:35;;;;;;;1.60;0.70;;;;;;;;;;3582485;40;20437;-68
2021/04/04 12:52:01;;;;;;;2.13;0.85;;;;;;;;;;3577515;40;20408;-67
2021/04/04 12:54:28;;;;;;;1.77;0.80;;;;;;;;;;3583421;40;20384;-68
2021/04/04 12:56:55;;;;;;;2.33;0.80;;;;;;;;;;3585335;40;20375;-68
2021/04/04 12:59:21;;;;;;;1.92;0.80;;;;;;;;;;3584778;40;20378;-68
2021/04/04 13:01:48;;;;;;;2.63;0.60;;;;;;;;;;3583277;40;20384;-68
2021/04/04 13:04:18;;;;;;;1.70;0.60;;;;;;;;;;3585054;40;20414;-67
2021/04/04 13:06:46;;;;;;;2.00;0.60;;;;;;;;;;3584247;40;20378;-68
2021/04/04 13:09:12;;;;;;;2.50;0.70;;;;;;;;;;3586933;40;20382;-68
2021/04/04 13:11:39;;;;;;;0.98;0.63;;;;;;;;;;3583831;40;20488;-68
2021/04/04 13:14:05;;;;;;;1.92;0.68;;;;;;;;;;3577752;40;20406;-68
2021/04/04 13:16:32;;;;;;;1.85;0.68;;;;;;;;;;3577309;40;20444;-68
2021/04/04 13:18:58;;;;;;;3.97;0.80;;;;;;;;;;3583935;40;20378;-71
2021/04/04 13:21:30;;;;;;;1.90;0.70;;;;;;;;;;3579058;40;20422;-69
2021/04/04 13:23:58;;;;;;;1.52;0.60;;;;;;;;;;3583779;40;20481;-69
2021/04/04 13:26:26;;;;;;;2.45;0.60;;;;;;;;;;3577853;40;20455;-68
2021/04/04 13:28:59;;;;;;;2.65;0.95;;;;;;;;;;3580646;40;20404;-68
2021/04/04 13:31:27;;;;;;;0.80;0.60;;;;;;;;;;3587142;40;20373;-68
2021/04/04 13:34:04;;;;;;;1.50;0.60;;;;;;;;;;3586700;40;20365;-67
2021/04/04 13:36:31;;;;;;;1.80;0.70;;;;;;;;;;3581116;40;20473;-67
2021/04/04 13:38:58;;;;;;;1.35;0.68;;;;;;;;;;3594249;40;20368;-68
2021/04/04 13:41:25;;;;;;;1.95;0.77;;;;;;;;;;3590287;40;20759;-67
2021/04/04 13:43:52;;;;;;;2.00;0.60;;;;;;;;;;3593933;40;20738;-67
2021/04/04 13:46:32;;;;;;;1.83;0.70;;;;;;;;;;3577424;40;20872;-67
2021/04/04 13:48:59;;;;;;;1.33;0.70;;;;;;;;;;3591397;40;20364;-67
2021/04/04 13:51:25;;;;;;;2.23;0.67;;;;;;;;;;3575656;40;20420;-67
2021/04/04 13:54:09;;;;;;;1.02;0.50;;;;;;;;;;3581778;40;20376;-67
2021/04/04 13:56:46;;;;;;;2.58;0.70;;;;;;;;;;3586500;40;20632;-67
2021/04/04 13:59:13;;;;;;;2.17;0.60;;;;;;;;;;3579009;40;20398;-67
2021/04/04 14:01:41;;;;;;;1.35;0.50;;;;;;;;;;3578080;40;20629;-67
2021/04/04 14:04:08;;;;;;;3.53;0.90;;;;;;;;;;3587192;40;20417;-68
2021/04/04 14:06:38;;;;;;;1.10;0.70;;;;;;;;;;3589162;40;20374;-67
2021/04/04 14:09:05;;;;;;;1.88;0.80;;;;;;;;;;3568633;40;20395;-67
2021/04/04 14:11:35;;;;;;;1.77;0.70;;;;;;;;;;3573284;40;20392;-67
2021/04/04 14:14:03;;;;;;;2.22;0.63;;;18.70;45.00;;;;;;3592354;40;20834;-67
2021/04/04 14:16:29;;;;;;;2.42;0.57;;;18.70;45.20;;;;;;3577334;40;20413;-67
2021/04/04 14:18:55;;;;;;;1.75;0.60;;;18.60;46.30;;;;;;3575364;40;20407;-67
2021/04/04 14:21:21;;;;;;;2.15;0.70;;;18.70;47.00;;;;;;3586770;40;20613;-67
2021/04/04 14:23:47;;;;;;;1.20;0.60;;;18.60;46.70;;;;;;3588048;40;20416;-70
2021/04/04 14:26:14;;;;;;;1.75;0.60;;;18.50;45.00;;;;;;3589998;40;20379;-68
2021/04/04 14:28:41;;;;;;;2.83;0.67;;;18.40;45.90;;;;;;3579654;40;20402;-67
2021/04/04 14:31:07;;;;;;;2.42;0.60;;;18.70;45.80;;;;;;3580232;40;20428;-68
2021/04/04 14:33:34;;;;;;;2.72;0.80;;;;;;;;;;3578909;40;20788;-68